Time;durP1;ratioP1;P1;durP2;ratioP2;P2;SDS_P1;SDS_P2;PMS_P1;PMS_P2;Temp;Humidity;BMP_temperature;BMP_pressure;BME280_temperature;BME280_humidity;BME280_pressure;Samples;Min_cycle;Max_cycle;Signal;HPM_P1;HPM_P2
2023/07/07 00:01:32;;;;;;;0.10;0.10;;;12.30;60.50;;;;;;5030860;28;20204;-50
2023/07/07 00:04:03;;;;;;;0.10;0.10;;;12.40;60.70;;;;;;5030483;28;20718;-49
2023/07/07 00:06:33;;;;;;;0.10;0.10;;;12.40;60.80;;;;;;5028118;28;20226;-47
2023/07/07 00:09:04;;;;;;;0.10;0.10;;;12.40;60.90;;;;;;5030986;28;20644;-48
2023/07/07 00:11:37;;;;;;;0.20;0.20;;;12.40;60.90;;;;;;5030767;28;20223;-51
2023/07/07 00:14:08;;;;;;;0.10;0.10;;;12.40;61.10;;;;;;5036592;28;20227;-48
2023/07/07 00:16:39;;;;;;;0.10;0.10;;;12.40;61.10;;;;;;5030843;28;20192;-47
2023/07/07 00:19:10;;;;;;;0.10;0.10;;;12.50;61.30;;;;;;5030966;28;20204;-44
2023/07/07 00:21:42;;;;;;;0.10;0.10;;;12.50;61.30;;;;;;5030698;28;20204;-47
2023/07/07 00:24:13;;;;;;;0.17;0.17;;;12.50;61.30;;;;;;5030735;28;20220;-45
2023/07/07 00:26:45;;;;;;;0.20;0.20;;;12.50;61.30;;;;;;5049389;28;20192;-44
2023/07/07 00:29:16;;;;;;;0.10;0.10;;;12.50;61.30;;;;;;5034314;28;20652;-47
2023/07/07 00:31:46;;;;;;;0.10;0.10;;;12.50;61.30;;;;;;5033497;28;20738;-47
2023/07/07 00:34:17;;;;;;;0.20;0.20;;;12.60;61.40;;;;;;5034308;28;20231;-47
2023/07/07 00:36:48;;;;;;;0.10;0.10;;;12.60;61.30;;;;;;5045259;28;20704;-46
2023/07/07 00:39:18;;;;;;;0.10;0.10;;;12.60;61.20;;;;;;5035017;28;20249;-45
2023/07/07 00:41:51;;;;;;;0.10;0.10;;;12.60;61.20;;;;;;5033995;28;20200;-46
2023/07/07 00:44:21;;;;;;;0.10;0.10;;;12.60;61.20;;;;;;5034541;28;20219;-51
2023/07/07 00:46:52;;;;;;;0.10;0.10;;;12.60;61.20;;;;;;5033814;28;20200;-47
2023/07/07 00:49:25;;;;;;;0.20;0.20;;;12.70;61.20;;;;;;5033880;28;20196;-47
2023/07/07 00:51:59;;;;;;;0.10;0.10;;;12.70;61.30;;;;;;5033672;28;20307;-47
2023/07/07 00:54:33;;;;;;;0.10;0.10;;;12.70;61.40;;;;;;5033672;28;20226;-47
2023/07/07 00:57:07;;;;;;;0.10;0.10;;;12.70;61.50;;;;;;5033646;28;20199;-50
2023/07/07 00:59:40;;;;;;;0.10;0.10;;;12.70;61.50;;;;;;5034127;28;20678;-47
2023/07/07 01:02:15;;;;;;;0.10;0.10;;;12.80;61.60;;;;;;5037738;28;20185;-49
2023/07/07 01:04:48;;;;;;;0.15;0.15;;;12.80;61.60;;;;;;5033973;28;20215;-43
2023/07/07 01:07:23;;;;;;;0.10;0.10;;;12.80;61.60;;;;;;5034174;28;20599;-47
2023/07/07 01:09:54;;;;;;;0.10;0.10;;;12.80;61.50;;;;;;5032896;28;20203;-49
2023/07/07 01:12:26;;;;;;;0.10;0.10;;;12.80;61.50;;;;;;5032914;28;20242;-49
2023/07/07 01:14:57;;;;;;;0.10;0.10;;;12.90;61.70;;;;;;5033912;28;20211;-51
2023/07/07 01:17:36;;;;;;;0.10;0.10;;;12.90;61.50;;;;;;5032939;28;20220;-49
2023/07/07 01:20:17;;;;;;;0.10;0.10;;;12.90;61.50;;;;;;5033796;28;20615;-48
2023/07/07 01:23:28;;;;;;;0.10;0.10;;;12.90;61.40;;;;;;5033566;28;20636;-48
2023/07/07 01:26:35;;;;;;;0.20;0.20;;;12.90;61.40;;;;;;5033987;28;20203;-46
2023/07/07 01:29:26;;;;;;;0.10;0.10;;;12.90;61.40;;;;;;5003272;28;20287;-55
2023/07/07 01:32:02;;;;;;;0.10;0.10;;;12.90;61.40;;;;;;5032709;28;20224;-46
2023/07/07 01:34:33;;;;;;;0.10;0.10;;;13.00;61.60;;;;;;5022379;28;20228;-49
2023/07/07 01:37:04;;;;;;;0.20;0.20;;;13.00;61.60;;;;;;5029743;28;20200;-45
2023/07/07 01:39:35;;;;;;;0.10;0.10;;;13.00;61.70;;;;;;5033093;28;20559;-48
2023/07/07 01:42:09;;;;;;;0.10;0.10;;;13.00;61.80;;;;;;5032937;28;20192;-45
2023/07/07 01:44:46;;;;;;;0.10;0.10;;;13.00;61.80;;;;;;5013764;28;20239;-45
2023/07/07 01:47:21;;;;;;;0.13;0.13;;;13.10;61.80;;;;;;5015682;28;20196;-50
2023/07/07 01:49:57;;;;;;;0.10;0.10;;;13.10;62.50;;;;;;5039654;28;20596;-44
2023/07/07 01:52:32;;;;;;;0.10;0.10;;;13.10;61.80;;;;;;5050126;28;20228;-46
2023/07/07 01:55:06;;;;;;;0.10;0.10;;;13.10;61.80;;;;;;5033421;28;20203;-44
2023/07/07 01:57:40;;;;;;;0.10;0.10;;;13.20;61.90;;;;;;5032861;28;20201;-45
2023/07/07 02:00:13;;;;;;;0.20;0.20;;;13.20;61.80;;;;;;5032904;28;20199;-46
2023/07/07 02:02:45;;;;;;;0.10;0.10;;;13.20;61.80;;;;;;5039756;28;20204;-47
2023/07/07 02:05:16;;;;;;;0.20;0.20;;;13.20;61.70;;;;;;5032442;28;20196;-45
2023/07/07 02:07:47;;;;;;;0.10;0.10;;;13.20;61.70;;;;;;5043751;23;20232;-49
2023/07/07 02:10:18;;;;;;;0.10;0.10;;;13.20;61.60;;;;;;5033273;28;20200;-55
2023/07/07 02:12:48;;;;;;;0.10;0.10;;;13.30;61.70;;;;;;5028328;28;20220;-51
2023/07/07 02:15:19;;;;;;;0.10;0.10;;;13.30;61.80;;;;;;5012826;28;20197;-53
2023/07/07 02:17:53;;;;;;;0.10;0.10;;;13.30;61.80;;;;;;5011930;28;20185;-55
2023/07/07 02:20:23;;;;;;;0.10;0.10;;;13.40;61.90;;;;;;5011985;28;20204;-56
2023/07/07 02:22:54;;;;;;;0.10;0.10;;;13.40;61.90;;;;;;5012622;28;20208;-51
2023/07/07 02:25:24;;;;;;;0.10;0.10;;;13.40;61.90;;;;;;5012171;28;20641;-52
2023/07/07 02:27:55;;;;;;;0.10;0.10;;;13.40;61.90;;;;;;5018275;28;20679;-52
2023/07/07 02:30:26;;;;;;;0.10;0.10;;;13.40;61.90;;;;;;5032769;28;20192;-52
2023/07/07 02:32:58;;;;;;;0.10;0.10;;;13.50;61.90;;;;;;5032792;28;20216;-49
2023/07/07 02:35:31;;;;;;;0.10;0.10;;;13.50;61.80;;;;;;5019382;28;20196;-52
2023/07/07 02:38:01;;;;;;;0.10;0.10;;;13.50;61.80;;;;;;5012596;28;20843;-54
2023/07/07 02:40:32;;;;;;;0.10;0.10;;;13.50;61.70;;;;;;5012062;28;20641;-51
2023/07/07 02:43:02;;;;;;;0.10;0.10;;;13.60;61.90;;;;;;5012456;28;20227;-56
2023/07/07 02:45:33;;;;;;;0.10;0.10;;;13.60;61.90;;;;;;5011274;28;20452;-49
2023/07/07 02:48:06;;;;;;;0.08;0.08;;;13.60;61.80;;;;;;5011388;28;20196;-47
2023/07/07 02:50:36;;;;;;;0.10;0.10;;;13.60;61.70;;;;;;5011694;28;20204;-45
2023/07/07 02:53:07;;;;;;;0.10;0.10;;;13.70;61.70;;;;;;5012347;28;20220;-55
2023/07/07 02:55:38;;;;;;;0.10;0.10;;;13.70;61.70;;;;;;5012473;28;20192;-56
2023/07/07 02:58:10;;;;;;;0.10;0.10;;;13.70;61.80;;;;;;5012330;28;20208;-55
2023/07/07 03:00:40;;;;;;;0.10;0.10;;;13.70;61.90;;;;;;5012685;28;20196;-55
2023/07/07 03:03:13;;;;;;;0.10;0.10;;;13.70;61.80;;;;;;5011748;28;20217;-52
2023/07/07 03:05:44;;;;;;;0.10;0.10;;;13.70;61.80;;;;;;5012355;28;20204;-55
2023/07/07 03:08:17;;;;;;;0.10;0.10;;;13.80;61.70;;;;;;5012713;28;20197;-51
2023/07/07 03:10:48;;;;;;;0.10;0.10;;;13.80;61.70;;;;;;5011709;28;20232;-55
2023/07/07 03:13:19;;;;;;;0.10;0.10;;;13.80;61.60;;;;;;5011683;28;20224;-55
2023/07/07 03:15:49;;;;;;;0.10;0.10;;;13.80;61.60;;;;;;5012036;28;20251;-56
2023/07/07 03:18:22;;;;;;;0.10;0.10;;;13.80;61.60;;;;;;5012197;28;20608;-56
2023/07/07 03:20:52;;;;;;;0.10;0.10;;;13.80;61.60;;;;;;5008009;28;20196;-55
2023/07/07 03:23:23;;;;;;;0.10;0.10;;;13.90;61.80;;;;;;5020452;28;20216;-55
2023/07/07 03:25:54;;;;;;;0.10;0.10;;;13.90;61.80;;;;;;5010663;28;20262;-51
2023/07/07 03:28:27;;;;;;;0.10;0.10;;;13.90;61.70;;;;;;5011292;28;20326;-53
2023/07/07 03:30:59;;;;;;;0.10;0.10;;;13.90;61.70;;;;;;5009092;28;20230;-52
2023/07/07 03:33:32;;;;;;;0.10;0.10;;;13.90;61.60;;;;;;5028517;28;20227;-51
2023/07/07 03:36:02;;;;;;;0.05;0.05;;;14.00;61.90;;;;;;5018582;28;20203;-55
2023/07/07 03:38:33;;;;;;;0.10;0.10;;;14.00;62.00;;;;;;5010073;28;20200;-53
2023/07/07 03:41:04;;;;;;;0.10;0.10;;;14.00;62.00;;;;;;5011419;28;20204;-55
2023/07/07 03:43:35;;;;;;;0.10;0.10;;;14.00;62.10;;;;;;5011072;28;20224;-55
2023/07/07 03:46:06;;;;;;;0.10;0.10;;;14.10;62.10;;;;;;5011274;28;20263;-56
2023/07/07 03:48:38;;;;;;;0.10;0.10;;;14.10;62.10;;;;;;5011407;28;20200;-55
2023/07/07 03:51:09;;;;;;;0.10;0.10;;;14.10;62.00;;;;;;5011069;28;20201;-56
2023/07/07 03:53:40;;;;;;;0.10;0.10;;;14.10;62.00;;;;;;5010670;28;20584;-54
2023/07/07 03:56:10;;;;;;;0.13;0.13;;;14.10;62.00;;;;;;5010502;28;20200;-56
2023/07/07 03:58:41;;;;;;;0.10;0.10;;;14.20;62.00;;;;;;5010178;28;20197;-51
2023/07/07 04:01:13;;;;;;;0.10;0.10;;;14.20;61.90;;;;;;5010298;28;20189;-51
2023/07/07 04:03:47;;;;;;;0.10;0.10;;;14.20;61.90;;;;;;5010936;28;20685;-56
2023/07/07 04:06:19;;;;;;;0.10;0.10;;;14.20;61.90;;;;;;5011259;28;20629;-48
2023/07/07 04:08:49;;;;;;;0.03;0.03;;;14.20;61.90;;;;;;5010749;28;20204;-48
2023/07/07 04:11:21;;;;;;;0.10;0.10;;;14.20;61.70;;;;;;5010817;28;20220;-51
2023/07/07 04:13:53;;;;;;;0.10;0.10;;;14.20;61.70;;;;;;5011143;28;20227;-56
2023/07/07 04:16:25;;;;;;;0.10;0.10;;;14.30;61.70;;;;;;5010156;28;20205;-45
2023/07/07 04:18:58;;;;;;;0.10;0.10;;;14.30;61.70;;;;;;5010936;28;20197;-52
2023/07/07 04:21:30;;;;;;;0.10;0.10;;;14.30;62.00;;;;;;5010180;28;20248;-48
2023/07/07 04:24:03;;;;;;;0.10;0.10;;;14.30;61.40;;;;;;5011020;28;20223;-53
2023/07/07 04:26:34;;;;;;;0.10;0.10;;;14.30;60.80;;;;;;5010133;28;20200;-53
2023/07/07 04:29:05;;;;;;;0.10;0.10;;;14.30;60.40;;;;;;5010447;28;20566;-56
2023/07/07 04:31:35;;;;;;;0.10;0.10;;;14.30;60.10;;;;;;5010926;28;20212;-53
2023/07/07 04:34:08;;;;;;;0.10;0.10;;;14.30;60.00;;;;;;5010782;28;20519;-56
2023/07/07 04:36:39;;;;;;;0.10;0.10;;;14.30;59.90;;;;;;5009525;28;20219;-55
2023/07/07 04:39:09;;;;;;;0.10;0.10;;;14.30;59.80;;;;;;5011027;28;20197;-52
2023/07/07 04:41:40;;;;;;;0.10;0.10;;;14.30;59.70;;;;;;5011355;28;20678;-56
2023/07/07 04:44:11;;;;;;;0.10;0.10;;;14.30;59.60;;;;;;5008105;28;20217;-56
2023/07/07 04:46:42;;;;;;;0.10;0.10;;;14.30;59.50;;;;;;5011037;28;20211;-54
2023/07/07 04:49:17;;;;;;;0.00;0.00;;;14.30;59.40;;;;;;5009436;28;20669;-54
2023/07/07 04:51:48;;;;;;;0.10;0.10;;;14.30;59.40;;;;;;5009870;28;20224;-58
2023/07/07 04:54:19;;;;;;;0.10;0.10;;;14.30;59.30;;;;;;5009553;28;20224;-57
2023/07/07 04:56:49;;;;;;;0.10;0.10;;;14.30;59.20;;;;;;5011101;28;20219;-56
2023/07/07 04:59:20;;;;;;;0.10;0.10;;;14.30;59.10;;;;;;5009410;28;20684;-56
2023/07/07 05:01:51;;;;;;;0.10;0.10;;;14.30;58.80;;;;;;5011180;28;20208;-56
2023/07/07 05:04:23;;;;;;;0.10;0.10;;;14.30;58.60;;;;;;5010401;28;20217;-56
2023/07/07 05:06:54;;;;;;;0.10;0.10;;;14.30;58.20;;;;;;5010251;28;20205;-51
2023/07/07 05:09:24;;;;;;;0.08;0.08;;;14.30;57.90;;;;;;5010447;28;20197;-56
2023/07/07 05:11:55;;;;;;;0.10;0.10;;;14.20;57.60;;;;;;5012333;28;20217;-55
2023/07/07 05:14:26;;;;;;;0.10;0.10;;;14.20;57.60;;;;;;5013758;28;20235;-55
2023/07/07 05:16:56;;;;;;;0.13;0.13;;;14.20;57.40;;;;;;5022436;28;20205;-56
2023/07/07 05:19:29;;;;;;;0.10;0.10;;;14.10;57.20;;;;;;5013504;28;20197;-54
2023/07/07 05:21:59;;;;;;;0.10;0.10;;;14.10;57.10;;;;;;5011964;28;20196;-49
2023/07/07 05:24:30;;;;;;;0.13;0.13;;;14.10;57.00;;;;;;5010210;28;20216;-52
2023/07/07 05:27:01;;;;;;;0.10;0.10;;;14.00;56.90;;;;;;5011080;28;20189;-52
2023/07/07 05:29:31;;;;;;;0.10;0.10;;;14.00;56.90;;;;;;5013015;28;20205;-52
2023/07/07 05:32:02;;;;;;;0.10;0.10;;;13.90;56.80;;;;;;5013882;28;20220;-51
2023/07/07 05:34:34;;;;;;;0.10;0.10;;;13.90;56.90;;;;;;5012646;28;20229;-48
2023/07/07 05:37:05;;;;;;;0.10;0.10;;;13.90;57.00;;;;;;5012852;28;20192;-53
2023/07/07 05:39:36;;;;;;;0.10;0.10;;;13.90;57.30;;;;;;5011953;28;20660;-53
2023/07/07 05:42:07;;;;;;;0.10;0.10;;;13.90;57.80;;;;;;5013559;28;20193;-55
2023/07/07 05:44:37;;;;;;;0.10;0.10;;;13.90;58.10;;;;;;4994404;28;20214;-50
2023/07/07 05:47:08;;;;;;;0.10;0.10;;;13.90;58.20;;;;;;5012437;28;20192;-52
2023/07/07 05:49:41;;;;;;;0.10;0.10;;;14.00;58.40;;;;;;5012771;28;20196;-50
2023/07/07 05:52:14;;;;;;;0.10;0.10;;;14.00;58.50;;;;;;5011953;28;20221;-55
2023/07/07 05:54:44;;;;;;;0.10;0.10;;;14.00;58.50;;;;;;5013870;28;20200;-51
2023/07/07 05:57:15;;;;;;;0.10;0.10;;;14.00;58.60;;;;;;5011489;28;20562;-54
2023/07/07 05:59:46;;;;;;;0.10;0.10;;;14.00;59.20;;;;;;5013500;28;20680;-47
2023/07/07 06:02:16;;;;;;;0.10;0.10;;;14.10;58.70;;;;;;5012292;28;20200;-55
2023/07/07 06:04:50;;;;;;;0.10;0.10;;;14.10;58.70;;;;;;5011899;28;20205;-53
2023/07/07 06:07:21;;;;;;;0.10;0.10;;;14.10;58.70;;;;;;5011385;28;20208;-54
2023/07/07 06:09:57;;;;;;;0.10;0.10;;;14.10;58.70;;;;;;5012802;28;20200;-54
2023/07/07 06:12:28;;;;;;;0.10;0.10;;;14.20;58.70;;;;;;5012730;28;20216;-49
2023/07/07 06:14:59;;;;;;;0.20;0.20;;;14.20;59.30;;;;;;5011036;28;20201;-56
2023/07/07 06:17:29;;;;;;;0.10;0.10;;;14.20;58.70;;;;;;5014446;28;20201;-55
2023/07/07 06:20:02;;;;;;;0.10;0.10;;;14.20;58.60;;;;;;5012447;28;20911;-45
2023/07/07 06:22:32;;;;;;;0.10;0.10;;;14.20;58.60;;;;;;5011287;28;20196;-55
2023/07/07 06:25:04;;;;;;;0.10;0.10;;;14.30;58.70;;;;;;5012047;28;20192;-54
2023/07/07 06:27:35;;;;;;;0.10;0.10;;;14.30;58.70;;;;;;5012478;28;20267;-56
2023/07/07 06:30:06;;;;;;;0.10;0.10;;;14.30;58.70;;;;;;5012499;28;20185;-44
2023/07/07 06:32:37;;;;;;;0.10;0.10;;;14.30;58.70;;;;;;5012848;28;20224;-44
2023/07/07 06:35:10;;;;;;;0.00;0.00;;;14.30;58.70;;;;;;5012837;28;20196;-50
2023/07/07 06:37:41;;;;;;;0.10;0.10;;;14.40;58.70;;;;;;5011567;28;20201;-51
2023/07/07 06:40:12;;;;;;;0.20;0.20;;;14.40;58.70;;;;;;5012120;28;20201;-51
2023/07/07 06:42:43;;;;;;;0.10;0.10;;;14.40;58.70;;;;;;5011924;28;20216;-48
2023/07/07 06:45:14;;;;;;;0.10;0.10;;;14.40;58.70;;;;;;5012764;28;20197;-55
2023/07/07 06:47:44;;;;;;;0.10;0.10;;;14.40;58.70;;;;;;5011935;28;20196;-55
2023/07/07 06:50:22;;;;;;;0.10;0.10;;;14.40;58.70;;;;;;5012940;28;20208;-53
2023/07/07 06:52:53;;;;;;;0.10;0.10;;;14.40;58.70;;;;;;5011942;28;20586;-55
2023/07/07 06:55:24;;;;;;;0.10;0.10;;;14.40;58.60;;;;;;5012289;28;20661;-55
2023/07/07 06:57:55;;;;;;;0.10;0.10;;;14.40;58.70;;;;;;5012393;28;20607;-56
2023/07/07 07:00:25;;;;;;;0.10;0.10;;;14.40;58.70;;;;;;5012216;28;20207;-54
2023/07/07 07:02:56;;;;;;;0.10;0.10;;;14.40;58.70;;;;;;5012160;28;20460;-54
2023/07/07 07:05:28;;;;;;;0.05;0.05;;;14.40;58.60;;;;;;5011158;28;20267;-54
2023/07/07 07:07:59;;;;;;;0.20;0.20;;;14.40;58.70;;;;;;5012110;28;20278;-55
2023/07/07 07:10:30;;;;;;;0.15;0.15;;;14.40;58.70;;;;;;5011578;28;20192;-54
2023/07/07 07:13:00;;;;;;;0.15;0.15;;;14.40;58.60;;;;;;5024359;28;20233;-55
2023/07/07 07:15:31;;;;;;;0.10;0.10;;;14.40;58.60;;;;;;5011741;28;20711;-56
2023/07/07 07:18:02;;;;;;;0.10;0.10;;;14.40;58.60;;;;;;5011556;28;20516;-56
2023/07/07 07:20:34;;;;;;;0.10;0.10;;;14.40;58.60;;;;;;5010857;28;20204;-54
2023/07/07 07:23:05;;;;;;;0.10;0.10;;;14.40;58.60;;;;;;5011990;28;20224;-51
2023/07/07 07:25:35;;;;;;;0.10;0.10;;;14.40;58.60;;;;;;5011510;28;20358;-54
2023/07/07 07:28:06;;;;;;;0.10;0.10;;;14.40;58.50;;;;;;5011110;28;20200;-53
2023/07/07 07:30:37;;;;;;;0.10;0.10;;;14.40;58.60;;;;;;5011833;28;20197;-53
2023/07/07 07:33:12;;;;;;;0.10;0.10;;;14.40;58.60;;;;;;5011822;28;20224;-52
2023/07/07 07:35:45;;;;;;;0.10;0.10;;;14.40;58.50;;;;;;5011307;28;20220;-44
2023/07/07 07:38:17;;;;;;;0.10;0.10;;;14.40;58.50;;;;;;5011897;28;20567;-44
2023/07/07 07:40:47;;;;;;;0.10;0.10;;;14.40;58.60;;;;;;5011170;28;20204;-44
2023/07/07 07:43:18;;;;;;;0.10;0.10;;;14.40;58.60;;;;;;5011426;28;20232;-44
2023/07/07 07:45:49;;;;;;;0.10;0.10;;;14.40;58.60;;;;;;5011609;28;20197;-45
2023/07/07 07:48:19;;;;;;;0.10;0.10;;;14.40;58.60;;;;;;5012148;28;20197;-44
2023/07/07 07:50:52;;;;;;;0.10;0.10;;;14.40;58.60;;;;;;5010960;28;20192;-44
2023/07/07 07:53:23;;;;;;;0.10;0.10;;;14.40;58.60;;;;;;5011284;28;20231;-44
2023/07/07 07:55:53;;;;;;;0.10;0.10;;;14.40;58.50;;;;;;5011593;28;20197;-55
2023/07/07 07:58:24;;;;;;;0.05;0.05;;;14.40;58.60;;;;;;5011579;28;20557;-46
2023/07/07 08:00:55;;;;;;;0.03;0.03;;;14.40;58.70;;;;;;5011626;28;20197;-44
2023/07/07 08:03:25;;;;;;;0.10;0.10;;;14.40;58.70;;;;;;5011692;28;20220;-44
2023/07/07 08:06:00;;;;;;;0.10;0.10;;;14.40;58.70;;;;;;5011268;28;20199;-44
2023/07/07 08:08:31;;;;;;;0.10;0.10;;;14.40;58.70;;;;;;5011321;28;20660;-49
2023/07/07 08:11:03;;;;;;;0.10;0.10;;;14.40;58.70;;;;;;5011946;28;20214;-55
2023/07/07 08:13:34;;;;;;;0.10;0.10;;;14.40;58.70;;;;;;5011140;28;20801;-54
2023/07/07 08:16:05;;;;;;;0.10;0.10;;;14.40;58.60;;;;;;5011090;28;20196;-46
2023/07/07 08:18:36;;;;;;;0.10;0.10;;;14.30;58.60;;;;;;5011487;28;20197;-54
2023/07/07 08:21:09;;;;;;;0.10;0.10;;;14.40;58.70;;;;;;5010782;28;20203;-46
2023/07/07 08:23:40;;;;;;;0.13;0.13;;;14.40;58.60;;;;;;5011496;28;20610;-45
2023/07/07 08:26:10;;;;;;;0.10;0.10;;;14.30;58.70;;;;;;5011534;28;20201;-44
2023/07/07 08:28:41;;;;;;;0.10;0.10;;;14.40;58.70;;;;;;5010630;28;20653;-45
2023/07/07 08:31:12;;;;;;;0.10;0.10;;;14.30;58.60;;;;;;5011482;28;20193;-44
2023/07/07 08:33:44;;;;;;;0.10;0.10;;;14.30;58.70;;;;;;5011240;28;20236;-44
2023/07/07 08:36:17;;;;;;;0.10;0.10;;;14.30;58.60;;;;;;5010765;28;20232;-47
2023/07/07 08:38:48;;;;;;;0.10;0.10;;;14.30;59.20;;;;;;5011000;28;20197;-43
2023/07/07 08:41:19;;;;;;;0.10;0.10;;;14.30;58.70;;;;;;5011799;28;20657;-44
2023/07/07 08:43:50;;;;;;;0.00;0.00;;;14.30;58.60;;;;;;5011662;28;20217;-47
2023/07/07 08:46:28;;;;;;;0.00;0.00;;;14.30;58.60;;;;;;5013927;28;20200;-50
2023/07/07 08:49:05;;;;;;;0.10;0.10;;;14.30;58.60;;;;;;5015019;28;20200;-46
2023/07/07 08:51:44;;;;;;;0.10;0.10;;;14.30;58.50;;;;;;5014758;28;20192;-44
2023/07/07 08:54:20;;;;;;;0.10;0.10;;;14.30;58.50;;;;;;5014838;28;20590;-48
2023/07/07 08:56:58;;;;;;;0.10;0.10;;;14.30;58.50;;;;;;5014464;28;20219;-47
2023/07/07 08:59:35;;;;;;;0.10;0.10;;;14.30;58.50;;;;;;5014308;28;20200;-47
2023/07/07 09:02:31;;;;;;;0.10;0.10;;;14.30;58.50;;;;;;5014156;28;20622;-46
2023/07/07 09:05:13;;;;;;;0.10;0.10;;;14.30;58.50;;;;;;5013880;28;20201;-47
2023/07/07 09:07:57;;;;;;;0.10;0.10;;;14.30;58.50;;;;;;5014771;28;20200;-48
2023/07/07 09:10:45;;;;;;;0.10;0.10;;;14.30;58.50;;;;;;5014714;28;20205;-47
2023/07/07 09:13:24;;;;;;;0.10;0.10;;;14.20;58.50;;;;;;5014372;28;20228;-48
2023/07/07 09:16:10;;;;;;;0.10;0.10;;;14.30;58.50;;;;;;5014579;28;20196;-46
2023/07/07 09:18:46;;;;;;;0.10;0.10;;;14.20;58.50;;;;;;5014452;28;20197;-47
2023/07/07 09:21:30;;;;;;;0.10;0.10;;;14.20;58.40;;;;;;5014440;28;20259;-48
2023/07/07 09:24:09;;;;;;;0.10;0.10;;;14.20;58.40;;;;;;5014661;28;20220;-48
2023/07/07 09:26:42;;;;;;;0.10;0.10;;;14.20;58.40;;;;;;5013830;28;20284;-47
2023/07/07 09:29:21;;;;;;;0.10;0.10;;;14.20;58.50;;;;;;5013495;28;20201;-47
2023/07/07 09:31:52;;;;;;;0.10;0.10;;;14.20;58.50;;;;;;5014018;28;20232;-43
2023/07/07 09:34:25;;;;;;;0.10;0.10;;;14.20;58.40;;;;;;5013087;28;20236;-45
2023/07/07 09:37:18;;;;;;;0.10;0.10;;;14.20;58.50;;;;;;5013642;28;20201;-46
2023/07/07 09:40:14;;;;;;;0.10;0.10;;;14.20;58.50;;;;;;5013741;28;20291;-47
2023/07/07 09:42:56;;;;;;;0.10;0.10;;;14.20;58.40;;;;;;5013994;28;20716;-47
2023/07/07 09:45:37;;;;;;;0.10;0.10;;;14.20;58.40;;;;;;4994608;28;20197;-48
2023/07/07 09:48:20;;;;;;;0.10;0.10;;;14.20;58.60;;;;;;4994529;28;20236;-46
2023/07/07 09:51:00;;;;;;;0.10;0.10;;;14.20;58.60;;;;;;4994296;28;20208;-48
2023/07/07 09:53:35;;;;;;;0.10;0.10;;;14.20;58.70;;;;;;4994354;28;20225;-48
2023/07/07 09:56:11;;;;;;;0.10;0.10;;;14.20;58.60;;;;;;4994397;28;20563;-51
2023/07/07 09:58:50;;;;;;;0.10;0.10;;;14.20;58.60;;;;;;4993281;28;20200;-52
2023/07/07 10:01:21;;;;;;;0.10;0.10;;;14.20;58.60;;;;;;4994031;28;20233;-52
2023/07/07 10:03:52;;;;;;;0.03;0.03;;;14.20;58.60;;;;;;4992959;28;20284;-51
2023/07/07 10:06:31;;;;;;;0.05;0.05;;;14.20;58.60;;;;;;4994538;28;20189;-46
2023/07/07 10:09:02;;;;;;;0.10;0.10;;;14.10;58.60;;;;;;4994315;28;20202;-50
2023/07/07 10:11:39;;;;;;;0.10;0.10;;;14.20;58.60;;;;;;4993952;28;20202;-49
2023/07/07 10:14:12;;;;;;;0.10;0.10;;;14.20;58.50;;;;;;5009929;28;20232;-52
2023/07/07 10:16:54;;;;;;;0.10;0.10;;;14.10;58.50;;;;;;5013710;28;20197;-48
2023/07/07 10:19:26;;;;;;;0.10;0.10;;;14.20;58.50;;;;;;5011746;28;20672;-53
2023/07/07 10:21:57;;;;;;;0.10;0.10;;;14.20;58.60;;;;;;5013295;28;20196;-46
2023/07/07 10:24:30;;;;;;;0.10;0.10;;;14.10;58.60;;;;;;5012790;28;20217;-54
2023/07/07 10:27:03;;;;;;;0.10;0.10;;;14.10;58.60;;;;;;5013255;28;20197;-54
2023/07/07 10:29:39;;;;;;;0.10;0.10;;;14.10;58.60;;;;;;5013291;28;20212;-55
2023/07/07 10:32:13;;;;;;;0.10;0.10;;;14.10;58.60;;;;;;5012787;28;20605;-52
2023/07/07 10:34:48;;;;;;;0.10;0.10;;;14.10;58.60;;;;;;5012119;28;20240;-56
2023/07/07 10:37:21;;;;;;;0.10;0.10;;;14.10;58.60;;;;;;5010601;28;20212;-48
2023/07/07 10:39:56;;;;;;;0.10;0.10;;;14.20;58.80;;;;;;5009315;28;20922;-51
2023/07/07 10:42:30;;;;;;;0.10;0.10;;;14.10;58.80;;;;;;5010009;28;20201;-51
2023/07/07 10:45:02;;;;;;;0.10;0.10;;;14.10;58.70;;;;;;5012423;28;20231;-54
2023/07/07 10:47:34;;;;;;;0.10;0.10;;;14.10;58.70;;;;;;5010763;28;20189;-51
2023/07/07 10:50:06;;;;;;;0.10;0.10;;;14.10;58.70;;;;;;5010882;28;20196;-47
2023/07/07 10:52:57;;;;;;;0.10;0.10;;;14.10;58.70;;;;;;5015556;28;20711;-45
2023/07/07 10:55:32;;;;;;;0.10;0.10;;;14.10;58.60;;;;;;5031530;28;20226;-49
2023/07/07 10:58:19;;;;;;;0.10;0.10;;;14.10;58.60;;;;;;5026115;28;20574;-48
2023/07/07 11:01:01;;;;;;;0.10;0.10;;;14.10;58.60;;;;;;5012534;28;20203;-45
2023/07/07 11:03:59;;;;;;;0.10;0.10;;;14.10;58.60;;;;;;5010277;28;20236;-51
2023/07/07 11:06:35;;;;;;;0.10;0.10;;;14.10;58.60;;;;;;5011355;28;20592;-51
2023/07/07 11:09:23;;;;;;;0.10;0.10;;;14.10;58.60;;;;;;5023821;28;20196;-47
2023/07/07 11:12:05;;;;;;;0.10;0.10;;;14.10;58.60;;;;;;5011620;28;20204;-47
2023/07/07 11:14:51;;;;;;;0.10;0.10;;;14.10;58.60;;;;;;5029120;28;20643;-47
2023/07/07 11:17:36;;;;;;;0.10;0.10;;;14.10;58.70;;;;;;5010492;28;20200;-49
2023/07/07 11:20:28;;;;;;;0.10;0.10;;;14.00;58.60;;;;;;5010779;28;20196;-48
2023/07/07 11:23:16;;;;;;;0.08;0.08;;;14.10;58.60;;;;;;4997778;28;20212;-46
2023/07/07 11:25:54;;;;;;;0.10;0.10;;;14.10;58.60;;;;;;5009691;28;20203;-44
2023/07/07 11:28:36;;;;;;;0.10;0.10;;;14.00;58.50;;;;;;5001456;28;20193;-46
2023/07/07 11:31:29;;;;;;;0.10;0.10;;;14.00;58.50;;;;;;5011472;28;20200;-49
2023/07/07 11:34:09;;;;;;;0.10;0.10;;;14.00;59.20;;;;;;5011443;28;20228;-49
2023/07/07 11:37:01;;;;;;;0.10;0.10;;;14.00;58.50;;;;;;5010690;28;20597;-50
2023/07/07 11:39:51;;;;;;;0.10;0.10;;;14.00;58.60;;;;;;5009942;28;20280;-49
2023/07/07 11:42:51;;;;;;;0.10;0.10;;;14.00;58.50;;;;;;5011296;28;20192;-47
2023/07/07 11:45:31;;;;;;;0.10;0.10;;;13.90;58.60;;;;;;5011337;28;20460;-46
2023/07/07 11:48:26;;;;;;;0.10;0.10;;;14.00;58.50;;;;;;5016830;28;20607;-50
2023/07/07 11:51:18;;;;;;;0.10;0.10;;;13.90;58.50;;;;;;5017223;28;20197;-45
2023/07/07 11:53:59;;;;;;;0.10;0.10;;;13.90;58.50;;;;;;5021937;28;20462;-44
2023/07/07 11:56:43;;;;;;;0.10;0.10;;;14.00;58.50;;;;;;5011393;28;20192;-45
2023/07/07 11:59:27;;;;;;;0.10;0.10;;;13.90;58.50;;;;;;5009162;28;20199;-49
2023/07/07 12:01:59;;;;;;;0.10;0.10;;;14.00;58.50;;;;;;5008888;28;20189;-45
2023/07/07 12:04:38;;;;;;;0.10;0.10;;;14.00;58.60;;;;;;5011210;28;20216;-46
2023/07/07 12:07:14;;;;;;;0.10;0.10;;;13.90;58.60;;;;;;5011291;28;20197;-49
2023/07/07 12:09:51;;;;;;;0.10;0.10;;;13.90;58.60;;;;;;5027589;22;20908;-46
2023/07/07 12:12:27;;;;;;;0.10;0.10;;;13.90;58.60;;;;;;5038369;28;20769;-47
2023/07/07 12:15:02;;;;;;;0.05;0.05;;;13.90;58.60;;;;;;5038744;28;20368;-50
2023/07/07 12:17:36;;;;;;;0.10;0.10;;;13.90;58.70;;;;;;5037611;28;20211;-50
2023/07/07 12:20:16;;;;;;;0.03;0.03;;;13.90;58.60;;;;;;5037993;28;20663;-50
2023/07/07 12:22:48;;;;;;;0.05;0.05;;;13.90;58.60;;;;;;5046027;28;20214;-51
2023/07/07 12:25:24;;;;;;;0.10;0.10;;;13.90;58.60;;;;;;5045080;28;20195;-48
2023/07/07 12:27:56;;;;;;;0.10;0.10;;;13.90;58.50;;;;;;5043325;28;20228;-48
2023/07/07 12:30:30;;;;;;;0.10;0.10;;;13.90;58.50;;;;;;5045921;28;20274;-52
2023/07/07 12:33:01;;;;;;;0.10;0.10;;;13.90;58.50;;;;;;5044862;28;20208;-48
2023/07/07 12:35:43;;;;;;;0.10;0.10;;;13.90;58.50;;;;;;5040905;28;20255;-50
2023/07/07 12:38:24;;;;;;;0.20;0.20;;;13.90;58.50;;;;;;5041144;28;20200;-49
2023/07/07 12:40:59;;;;;;;0.00;0.00;;;13.90;58.50;;;;;;5041377;28;20191;-47
2023/07/07 12:43:35;;;;;;;0.10;0.10;;;13.90;58.50;;;;;;5040407;28;20215;-49
2023/07/07 12:46:07;;;;;;;0.10;0.10;;;13.90;58.50;;;;;;5043321;28;20301;-48
2023/07/07 12:48:38;;;;;;;0.10;0.10;;;13.90;58.50;;;;;;5042416;28;20242;-48
2023/07/07 12:51:11;;;;;;;0.10;0.10;;;13.90;58.50;;;;;;5037670;28;20645;-50
2023/07/07 12:53:44;;;;;;;0.10;0.10;;;13.80;58.40;;;;;;5034099;28;20223;-48
2023/07/07 12:56:21;;;;;;;0.20;0.20;;;13.90;58.50;;;;;;5034391;28;20196;-49
2023/07/07 12:58:53;;;;;;;0.10;0.10;;;13.90;58.50;;;;;;5034809;28;20199;-51
2023/07/07 13:01:34;;;;;;;0.10;0.10;;;13.90;58.50;;;;;;5034703;28;20282;-54
2023/07/07 13:04:21;;;;;;;0.10;0.10;;;13.80;58.40;;;;;;5034594;28;20216;-54
2023/07/07 13:07:07;;;;;;;0.10;0.10;;;13.80;58.40;;;;;;5034669;28;20196;-47
2023/07/07 13:09:51;;;;;;;0.15;0.15;;;13.80;58.40;;;;;;5047234;22;20180;-61
2023/07/07 13:12:51;;;;;;;0.20;0.20;;;13.80;58.40;;;;;;5054432;28;20515;-56
2023/07/07 13:15:27;;;;;;;0.15;0.15;;;13.80;58.40;;;;;;5012151;28;20224;-58
2023/07/07 13:17:58;;;;;;;0.10;0.10;;;13.80;58.40;;;;;;5056594;28;20647;-54
2023/07/07 13:20:30;;;;;;;0.10;0.10;;;13.80;58.40;;;;;;5053745;28;20200;-56
2023/07/07 13:23:07;;;;;;;0.10;0.10;;;13.80;58.40;;;;;;5054110;28;20212;-59
2023/07/07 13:25:38;;;;;;;0.10;0.10;;;13.80;58.50;;;;;;5054078;28;20195;-61